sensor_id;sensor_type;location;lat;lon;timestamp;temperature;humidity
3053;DHT22;1536;51.098;6.414;2022-07-06T00:02:12;17.10;93.50
3053;DHT22;1536;51.098;6.414;2022-07-06T00:04:38;17.00;93.40
3053;DHT22;1536;51.098;6.414;2022-07-06T00:07:06;17.00;93.50
3053;DHT22;1536;51.098;6.414;2022-07-06T00:09:33;16.90;93.40
3053;DHT22;1536;51.098;6.414;2022-07-06T00:12:00;16.90;93.40
3053;DHT22;1536;51.098;6.414;2022-07-06T00:14:27;16.90;93.60
3053;DHT22;1536;51.098;6.414;2022-07-06T00:16:54;16.90;93.50
3053;DHT22;1536;51.098;6.414;2022-07-06T00:19:20;16.80;93.50
3053;DHT22;1536;51.098;6.414;2022-07-06T00:21:47;16.80;93.40
3053;DHT22;1536;51.098;6.414;2022-07-06T00:24:15;16.80;93.40
3053;DHT22;1536;51.098;6.414;2022-07-06T00:26:43;16.70;93.30
3053;DHT22;1536;51.098;6.414;2022-07-06T00:29:10;16.70;93.40
3053;DHT22;1536;51.098;6.414;2022-07-06T00:31:37;16.70;93.60
3053;DHT22;1536;51.098;6.414;2022-07-06T00:34:03;16.70;94.00
3053;DHT22;1536;51.098;6.414;2022-07-06T00:36:30;16.60;93.70
3053;DHT22;1536;51.098;6.414;2022-07-06T00:38:57;16.60;93.70
3053;DHT22;1536;51.098;6.414;2022-07-06T00:41:25;16.50;93.60
3053;DHT22;1536;51.098;6.414;2022-07-06T00:43:53;16.50;93.60
3053;DHT22;1536;51.098;6.414;2022-07-06T00:46:23;16.50;93.90
3053;DHT22;1536;51.098;6.414;2022-07-06T00:48:51;16.40;93.50
3053;DHT22;1536;51.098;6.414;2022-07-06T00:51:18;16.40;93.50
3053;DHT22;1536;51.098;6.414;2022-07-06T00:53:46;16.40;93.50
3053;DHT22;1536;51.098;6.414;2022-07-06T00:56:14;16.30;93.50
3053;DHT22;1536;51.098;6.414;2022-07-06T00:58:42;16.30;93.50
3053;DHT22;1536;51.098;6.414;2022-07-06T01:01:09;16.20;93.40
3053;DHT22;1536;51.098;6.414;2022-07-06T01:03:36;16.20;93.30
3053;DHT22;1536;51.098;6.414;2022-07-06T01:06:03;16.20;93.30
3053;DHT22;1536;51.098;6.414;2022-07-06T01:08:30;16.20;93.30
3053;DHT22;1536;51.098;6.414;2022-07-06T01:10:57;16.10;93.60
3053;DHT22;1536;51.098;6.414;2022-07-06T01:13:25;16.10;93.60
3053;DHT22;1536;51.098;6.414;2022-07-06T01:15:53;16.10;93.60
3053;DHT22;1536;51.098;6.414;2022-07-06T01:18:20;16.10;93.60
3053;DHT22;1536;51.098;6.414;2022-07-06T01:20:48;16.00;93.60
3053;DHT22;1536;51.098;6.414;2022-07-06T01:23:15;16.00;93.50
3053;DHT22;1536;51.098;6.414;2022-07-06T01:25:42;16.00;93.50
3053;DHT22;1536;51.098;6.414;2022-07-06T01:28:09;16.00;93.70
3053;DHT22;1536;51.098;6.414;2022-07-06T01:30:36;15.90;93.70
3053;DHT22;1536;51.098;6.414;2022-07-06T01:33:02;15.90;93.80
3053;DHT22;1536;51.098;6.414;2022-07-06T01:35:31;15.90;93.90
3053;DHT22;1536;51.098;6.414;2022-07-06T01:38:00;15.80;93.90
3053;DHT22;1536;51.098;6.414;2022-07-06T01:40:27;15.80;94.00
3053;DHT22;1536;51.098;6.414;2022-07-06T01:42:54;15.80;94.00
3053;DHT22;1536;51.098;6.414;2022-07-06T01:45:21;15.70;93.90
3053;DHT22;1536;51.098;6.414;2022-07-06T01:47:47;15.70;94.70
3053;DHT22;1536;51.098;6.414;2022-07-06T01:50:14;15.70;93.80
3053;DHT22;1536;51.098;6.414;2022-07-06T01:52:41;15.70;93.70
3053;DHT22;1536;51.098;6.414;2022-07-06T01:55:09;15.70;94.30
3053;DHT22;1536;51.098;6.414;2022-07-06T01:57:36;15.60;93.60
3053;DHT22;1536;51.098;6.414;2022-07-06T02:00:05;15.60;94.00
3053;DHT22;1536;51.098;6.414;2022-07-06T02:02:32;15.60;94.00
3053;DHT22;1536;51.098;6.414;2022-07-06T02:04:59;15.50;93.90
3053;DHT22;1536;51.098;6.414;2022-07-06T02:07:26;15.50;93.90
3053;DHT22;1536;51.098;6.414;2022-07-06T02:09:52;15.40;93.80
3053;DHT22;1536;51.098;6.414;2022-07-06T02:12:20;15.40;93.90
3053;DHT22;1536;51.098;6.414;2022-07-06T02:14:47;15.40;93.90
3053;DHT22;1536;51.098;6.414;2022-07-06T02:17:14;15.40;93.90
3053;DHT22;1536;51.098;6.414;2022-07-06T02:19:41;15.30;93.80
3053;DHT22;1536;51.098;6.414;2022-07-06T02:22:07;15.30;93.90
3053;DHT22;1536;51.098;6.414;2022-07-06T02:24:34;15.30;94.00
3053;DHT22;1536;51.098;6.414;2022-07-06T02:27:01;15.30;94.10
3053;DHT22;1536;51.098;6.414;2022-07-06T02:32:10;15.20;94.20
3053;DHT22;1536;51.098;6.414;2022-07-06T02:34:37;15.20;94.30
3053;DHT22;1536;51.098;6.414;2022-07-06T02:37:04;15.10;94.30
3053;DHT22;1536;51.098;6.414;2022-07-06T02:39:31;15.20;94.30
3053;DHT22;1536;51.098;6.414;2022-07-06T02:41:57;15.10;94.20
3053;DHT22;1536;51.098;6.414;2022-07-06T02:44:24;15.10;94.20
3053;DHT22;1536;51.098;6.414;2022-07-06T02:46:52;15.10;94.20
3053;DHT22;1536;51.098;6.414;2022-07-06T02:49:19;15.10;94.30
3053;DHT22;1536;51.098;6.414;2022-07-06T02:51:46;15.10;94.40
3053;DHT22;1536;51.098;6.414;2022-07-06T02:54:12;15.10;94.60
3053;DHT22;1536;51.098;6.414;2022-07-06T02:56:39;15.00;94.60
3053;DHT22;1536;51.098;6.414;2022-07-06T03:01:48;15.00;94.80
3053;DHT22;1536;51.098;6.414;2022-07-06T03:04:16;15.00;94.80
3053;DHT22;1536;51.098;6.414;2022-07-06T03:06:42;15.00;94.80
3053;DHT22;1536;51.098;6.414;2022-07-06T03:09:09;14.90;94.70
3053;DHT22;1536;51.098;6.414;2022-07-06T03:11:36;14.90;94.80
3053;DHT22;1536;51.098;6.414;2022-07-06T03:14:03;14.90;94.90
3053;DHT22;1536;51.098;6.414;2022-07-06T03:16:30;14.90;94.90
3053;DHT22;1536;51.098;6.414;2022-07-06T03:18:57;14.90;94.80
3053;DHT22;1536;51.098;6.414;2022-07-06T03:21:26;14.90;94.80
3053;DHT22;1536;51.098;6.414;2022-07-06T03:23:52;14.80;94.90
3053;DHT22;1536;51.098;6.414;2022-07-06T03:26:19;14.80;94.90
3053;DHT22;1536;51.098;6.414;2022-07-06T03:28:46;14.80;95.00
3053;DHT22;1536;51.098;6.414;2022-07-06T03:31:13;14.80;95.00
3053;DHT22;1536;51.098;6.414;2022-07-06T03:33:39;14.80;95.00
3053;DHT22;1536;51.098;6.414;2022-07-06T03:36:21;14.80;95.10
3053;DHT22;1536;51.098;6.414;2022-07-06T03:38:49;14.80;95.30
3053;DHT22;1536;51.098;6.414;2022-07-06T03:41:16;14.80;95.30
3053;DHT22;1536;51.098;6.414;2022-07-06T03:43:42;14.80;95.40
3053;DHT22;1536;51.098;6.414;2022-07-06T03:46:09;14.80;95.40
3053;DHT22;1536;51.098;6.414;2022-07-06T03:48:36;14.80;95.50
3053;DHT22;1536;51.098;6.414;2022-07-06T03:51:03;14.80;95.60
3053;DHT22;1536;51.098;6.414;2022-07-06T03:53:31;14.80;95.70
3053;DHT22;1536;51.098;6.414;2022-07-06T03:55:59;14.80;95.80
3053;DHT22;1536;51.098;6.414;2022-07-06T03:58:43;14.80;95.90
3053;DHT22;1536;51.098;6.414;2022-07-06T04:01:10;14.70;96.00
3053;DHT22;1536;51.098;6.414;2022-07-06T04:03:36;14.70;96.10
3053;DHT22;1536;51.098;6.414;2022-07-06T04:06:04;14.70;96.10
3053;DHT22;1536;51.098;6.414;2022-07-06T04:08:31;14.70;96.20
3053;DHT22;1536;51.098;6.414;2022-07-06T04:10:59;14.70;96.20
3053;DHT22;1536;51.098;6.414;2022-07-06T04:13:25;14.70;96.30
3053;DHT22;1536;51.098;6.414;2022-07-06T04:15:52;14.70;96.40
3053;DHT22;1536;51.098;6.414;2022-07-06T04:18:19;14.70;96.50
3053;DHT22;1536;51.098;6.414;2022-07-06T04:20:46;14.70;96.70
3053;DHT22;1536;51.098;6.414;2022-07-06T04:23:13;14.70;96.80
3053;DHT22;1536;51.098;6.414;2022-07-06T04:25:39;14.70;96.90
3053;DHT22;1536;51.098;6.414;2022-07-06T04:28:07;14.70;96.90
3053;DHT22;1536;51.098;6.414;2022-07-06T04:30:34;14.70;97.00
3053;DHT22;1536;51.098;6.414;2022-07-06T04:33:01;14.70;97.10
3053;DHT22;1536;51.098;6.414;2022-07-06T04:35:28;14.70;97.20
3053;DHT22;1536;51.098;6.414;2022-07-06T04:37:55;14.70;97.30
3053;DHT22;1536;51.098;6.414;2022-07-06T04:40:21;14.70;97.50
3053;DHT22;1536;51.098;6.414;2022-07-06T04:42:48;14.70;97.70
3053;DHT22;1536;51.098;6.414;2022-07-06T04:45:16;14.80;97.70
3053;DHT22;1536;51.098;6.414;2022-07-06T04:47:43;14.80;97.90
3053;DHT22;1536;51.098;6.414;2022-07-06T04:50:10;14.80;98.00
3053;DHT22;1536;51.098;6.414;2022-07-06T04:52:38;14.80;98.20
3053;DHT22;1536;51.098;6.414;2022-07-06T04:55:05;14.80;98.30
3053;DHT22;1536;51.098;6.414;2022-07-06T04:57:34;14.90;98.60
3053;DHT22;1536;51.098;6.414;2022-07-06T05:00:01;14.90;98.70
3053;DHT22;1536;51.098;6.414;2022-07-06T05:02:29;15.00;99.30
3053;DHT22;1536;51.098;6.414;2022-07-06T05:04:56;15.00;99.20
3053;DHT22;1536;51.098;6.414;2022-07-06T05:07:23;15.10;99.30
3053;DHT22;1536;51.098;6.414;2022-07-06T05:09:53;15.10;99.60
3053;DHT22;1536;51.098;6.414;2022-07-06T05:12:20;15.20;99.80
3053;DHT22;1536;51.098;6.414;2022-07-06T05:14:47;15.30;99.90
3053;DHT22;1536;51.098;6.414;2022-07-06T05:17:13;15.40;99.90
3053;DHT22;1536;51.098;6.414;2022-07-06T05:19:41;15.40;99.90
3053;DHT22;1536;51.098;6.414;2022-07-06T05:22:09;15.50;99.90
3053;DHT22;1536;51.098;6.414;2022-07-06T05:24:36;15.60;99.90
3053;DHT22;1536;51.098;6.414;2022-07-06T05:27:03;15.60;99.90
3053;DHT22;1536;51.098;6.414;2022-07-06T05:29:30;15.70;99.90
3053;DHT22;1536;51.098;6.414;2022-07-06T05:31:57;15.80;99.90
3053;DHT22;1536;51.098;6.414;2022-07-06T05:34:24;15.90;99.90
3053;DHT22;1536;51.098;6.414;2022-07-06T05:36:52;16.00;99.90
3053;DHT22;1536;51.098;6.414;2022-07-06T05:39:19;16.00;99.90
3053;DHT22;1536;51.098;6.414;2022-07-06T05:41:48;16.10;99.90
3053;DHT22;1536;51.098;6.414;2022-07-06T05:44:15;16.20;99.90
3053;DHT22;1536;51.098;6.414;2022-07-06T05:46:42;16.30;99.90
3053;DHT22;1536;51.098;6.414;2022-07-06T05:49:09;16.30;99.90
3053;DHT22;1536;51.098;6.414;2022-07-06T05:51:54;16.40;99.90
3053;DHT22;1536;51.098;6.414;2022-07-06T05:54:21;16.50;99.90
3053;DHT22;1536;51.098;6.414;2022-07-06T05:56:47;16.60;99.90
3053;DHT22;1536;51.098;6.414;2022-07-06T05:59:14;16.60;99.90
3053;DHT22;1536;51.098;6.414;2022-07-06T06:01:41;16.70;99.90
3053;DHT22;1536;51.098;6.414;2022-07-06T06:04:08;16.70;99.90
3053;DHT22;1536;51.098;6.414;2022-07-06T06:06:34;16.70;99.90
3053;DHT22;1536;51.098;6.414;2022-07-06T06:09:03;16.80;99.90
3053;DHT22;1536;51.098;6.414;2022-07-06T06:11:29;16.80;99.90
3053;DHT22;1536;51.098;6.414;2022-07-06T06:13:56;16.80;99.90
3053;DHT22;1536;51.098;6.414;2022-07-06T06:16:23;16.80;99.90
3053;DHT22;1536;51.098;6.414;2022-07-06T06:18:50;16.80;99.90
3053;DHT22;1536;51.098;6.414;2022-07-06T06:21:16;16.90;99.90
3053;DHT22;1536;51.098;6.414;2022-07-06T06:23:43;16.90;99.90
3053;DHT22;1536;51.098;6.414;2022-07-06T06:26:11;17.00;99.90
3053;DHT22;1536;51.098;6.414;2022-07-06T06:28:38;17.10;99.90
3053;DHT22;1536;51.098;6.414;2022-07-06T06:31:07;17.20;99.90
3053;DHT22;1536;51.098;6.414;2022-07-06T06:33:33;17.20;99.90
3053;DHT22;1536;51.098;6.414;2022-07-06T06:36:00;17.30;99.90
3053;DHT22;1536;51.098;6.414;2022-07-06T06:38:27;17.40;99.90
3053;DHT22;1536;51.098;6.414;2022-07-06T06:40:55;17.40;99.90
3053;DHT22;1536;51.098;6.414;2022-07-06T06:43:23;17.50;99.90
3053;DHT22;1536;51.098;6.414;2022-07-06T06:45:49;17.50;99.90
3053;DHT22;1536;51.098;6.414;2022-07-06T06:48:16;17.60;99.90
3053;DHT22;1536;51.098;6.414;2022-07-06T06:50:44;17.70;99.90
3053;DHT22;1536;51.098;6.414;2022-07-06T06:53:11;17.80;99.90
3053;DHT22;1536;51.098;6.414;2022-07-06T06:55:38;17.80;99.90
3053;DHT22;1536;51.098;6.414;2022-07-06T06:58:05;17.90;99.90
3053;DHT22;1536;51.098;6.414;2022-07-06T07:00:34;18.00;99.90
3053;DHT22;1536;51.098;6.414;2022-07-06T07:03:01;18.10;99.90
3053;DHT22;1536;51.098;6.414;2022-07-06T07:05:27;18.20;99.90
3053;DHT22;1536;51.098;6.414;2022-07-06T07:07:54;18.20;99.90
3053;DHT22;1536;51.098;6.414;2022-07-06T07:10:24;18.30;99.90
3053;DHT22;1536;51.098;6.414;2022-07-06T07:12:51;18.40;99.80
3053;DHT22;1536;51.098;6.414;2022-07-06T07:15:18;18.40;99.60
3053;DHT22;1536;51.098;6.414;2022-07-06T07:17:46;18.40;99.40
3053;DHT22;1536;51.098;6.414;2022-07-06T07:20:13;18.40;99.10
3053;DHT22;1536;51.098;6.414;2022-07-06T07:22:40;18.40;99.10
3053;DHT22;1536;51.098;6.414;2022-07-06T07:25:07;18.30;99.00
3053;DHT22;1536;51.098;6.414;2022-07-06T07:27:34;18.30;99.00
3053;DHT22;1536;51.098;6.414;2022-07-06T07:30:02;18.30;98.80
3053;DHT22;1536;51.098;6.414;2022-07-06T07:32:29;18.30;98.80
3053;DHT22;1536;51.098;6.414;2022-07-06T07:34:57;18.30;98.80
3053;DHT22;1536;51.098;6.414;2022-07-06T07:37:24;18.30;98.80
3053;DHT22;1536;51.098;6.414;2022-07-06T07:39:51;18.30;98.80
3053;DHT22;1536;51.098;6.414;2022-07-06T07:42:18;18.40;98.70
3053;DHT22;1536;51.098;6.414;2022-07-06T07:44:44;18.40;98.70
3053;DHT22;1536;51.098;6.414;2022-07-06T07:47:12;18.50;98.70
3053;DHT22;1536;51.098;6.414;2022-07-06T07:49:38;18.50;98.60
3053;DHT22;1536;51.098;6.414;2022-07-06T07:52:07;18.60;98.60
3053;DHT22;1536;51.098;6.414;2022-07-06T07:54:34;18.60;98.50
3053;DHT22;1536;51.098;6.414;2022-07-06T07:57:01;18.60;98.00
3053;DHT22;1536;51.098;6.414;2022-07-06T07:59:27;18.60;97.80
3053;DHT22;1536;51.098;6.414;2022-07-06T08:01:54;18.50;97.90
3053;DHT22;1536;51.098;6.414;2022-07-06T08:04:21;18.50;98.00
3053;DHT22;1536;51.098;6.414;2022-07-06T08:06:48;18.50;98.00
3053;DHT22;1536;51.098;6.414;2022-07-06T08:09:17;18.50;98.50
3053;DHT22;1536;51.098;6.414;2022-07-06T08:11:43;18.50;98.10
3053;DHT22;1536;51.098;6.414;2022-07-06T08:14:10;18.50;98.20
3053;DHT22;1536;51.098;6.414;2022-07-06T08:16:39;18.50;98.20
3053;DHT22;1536;51.098;6.414;2022-07-06T08:19:06;18.50;98.10
3053;DHT22;1536;51.098;6.414;2022-07-06T08:21:33;18.50;98.10
3053;DHT22;1536;51.098;6.414;2022-07-06T08:24:00;18.60;98.10
3053;DHT22;1536;51.098;6.414;2022-07-06T08:26:28;18.60;98.20
3053;DHT22;1536;51.098;6.414;2022-07-06T08:28:56;18.70;98.20
3053;DHT22;1536;51.098;6.414;2022-07-06T08:31:22;18.70;98.00
3053;DHT22;1536;51.098;6.414;2022-07-06T08:33:49;18.80;98.00
3053;DHT22;1536;51.098;6.414;2022-07-06T08:36:18;18.80;98.00
3053;DHT22;1536;51.098;6.414;2022-07-06T08:38:45;18.90;97.90
3053;DHT22;1536;51.098;6.414;2022-07-06T08:41:13;19.00;97.90
3053;DHT22;1536;51.098;6.414;2022-07-06T08:43:42;19.00;97.80
3053;DHT22;1536;51.098;6.414;2022-07-06T08:46:09;19.10;97.80
3053;DHT22;1536;51.098;6.414;2022-07-06T08:48:37;19.10;97.30
3053;DHT22;1536;51.098;6.414;2022-07-06T08:51:04;19.10;96.60
3053;DHT22;1536;51.098;6.414;2022-07-06T08:53:31;19.10;96.80
3053;DHT22;1536;51.098;6.414;2022-07-06T08:55:58;19.20;97.00
3053;DHT22;1536;51.098;6.414;2022-07-06T08:58:26;19.30;97.10
3053;DHT22;1536;51.098;6.414;2022-07-06T09:00:55;19.40;96.50
3053;DHT22;1536;51.098;6.414;2022-07-06T09:03:21;19.60;96.90
3053;DHT22;1536;51.098;6.414;2022-07-06T09:05:50;19.70;96.60
3053;DHT22;1536;51.098;6.414;2022-07-06T09:08:18;19.70;96.60
3053;DHT22;1536;51.098;6.414;2022-07-06T09:10:45;19.70;96.60
3053;DHT22;1536;51.098;6.414;2022-07-06T09:13:12;19.70;96.80
3053;DHT22;1536;51.098;6.414;2022-07-06T09:15:39;19.70;96.80
3053;DHT22;1536;51.098;6.414;2022-07-06T09:18:07;19.70;96.40
3053;DHT22;1536;51.098;6.414;2022-07-06T09:20:34;19.80;96.30
3053;DHT22;1536;51.098;6.414;2022-07-06T09:23:02;19.80;96.30
3053;DHT22;1536;51.098;6.414;2022-07-06T09:25:31;19.90;96.30
3053;DHT22;1536;51.098;6.414;2022-07-06T09:27:59;19.90;96.00
3053;DHT22;1536;51.098;6.414;2022-07-06T09:30:27;20.00;95.80
3053;DHT22;1536;51.098;6.414;2022-07-06T09:32:56;20.00;95.60
3053;DHT22;1536;51.098;6.414;2022-07-06T09:35:25;20.00;95.40
3053;DHT22;1536;51.098;6.414;2022-07-06T09:38:06;20.00;95.40
3053;DHT22;1536;51.098;6.414;2022-07-06T09:40:35;19.90;95.30
3053;DHT22;1536;51.098;6.414;2022-07-06T09:43:13;20.00;95.40
3053;DHT22;1536;51.098;6.414;2022-07-06T09:45:41;20.00;95.20
3053;DHT22;1536;51.098;6.414;2022-07-06T09:48:10;20.00;95.00
3053;DHT22;1536;51.098;6.414;2022-07-06T09:50:46;20.10;94.90
3053;DHT22;1536;51.098;6.414;2022-07-06T09:53:14;20.20;94.90
3053;DHT22;1536;51.098;6.414;2022-07-06T09:55:45;20.40;95.00
3053;DHT22;1536;51.098;6.414;2022-07-06T09:58:12;20.50;94.80
3053;DHT22;1536;51.098;6.414;2022-07-06T10:00:40;20.50;94.80
3053;DHT22;1536;51.098;6.414;2022-07-06T10:03:07;20.60;94.60
3053;DHT22;1536;51.098;6.414;2022-07-06T10:05:36;20.60;94.50
3053;DHT22;1536;51.098;6.414;2022-07-06T10:08:06;20.60;94.40
3053;DHT22;1536;51.098;6.414;2022-07-06T10:10:35;20.60;94.40
3053;DHT22;1536;51.098;6.414;2022-07-06T10:13:02;20.70;94.20
3053;DHT22;1536;51.098;6.414;2022-07-06T10:15:32;20.90;94.10
3053;DHT22;1536;51.098;6.414;2022-07-06T10:18:00;21.00;93.90
3053;DHT22;1536;51.098;6.414;2022-07-06T10:20:29;21.20;93.60
3053;DHT22;1536;51.098;6.414;2022-07-06T10:22:59;21.20;92.90
3053;DHT22;1536;51.098;6.414;2022-07-06T10:25:27;21.20;90.80
3053;DHT22;1536;51.098;6.414;2022-07-06T10:27:55;21.20;91.50
3053;DHT22;1536;51.098;6.414;2022-07-06T10:30:22;21.20;91.20
3053;DHT22;1536;51.098;6.414;2022-07-06T10:32:51;21.10;91.40
3053;DHT22;1536;51.098;6.414;2022-07-06T10:35:18;21.10;91.60
3053;DHT22;1536;51.098;6.414;2022-07-06T10:37:46;21.00;91.80
3053;DHT22;1536;51.098;6.414;2022-07-06T10:40:33;21.10;92.20
3053;DHT22;1536;51.098;6.414;2022-07-06T10:43:18;21.10;92.00
3053;DHT22;1536;51.098;6.414;2022-07-06T10:45:53;21.20;91.60
3053;DHT22;1536;51.098;6.414;2022-07-06T10:48:21;21.30;91.60
3053;DHT22;1536;51.098;6.414;2022-07-06T10:50:50;21.40;92.10
3053;DHT22;1536;51.098;6.414;2022-07-06T10:53:20;21.60;92.30
3053;DHT22;1536;51.098;6.414;2022-07-06T10:55:51;21.60;92.40
3053;DHT22;1536;51.098;6.414;2022-07-06T10:58:39;21.70;92.50
3053;DHT22;1536;51.098;6.414;2022-07-06T11:01:07;21.80;92.50
3053;DHT22;1536;51.098;6.414;2022-07-06T11:03:39;21.90;92.40
3053;DHT22;1536;51.098;6.414;2022-07-06T11:06:09;22.00;92.50
3053;DHT22;1536;51.098;6.414;2022-07-06T11:08:48;21.90;92.00
3053;DHT22;1536;51.098;6.414;2022-07-06T11:11:17;21.80;92.00
3053;DHT22;1536;51.098;6.414;2022-07-06T11:13:56;21.90;92.10
3053;DHT22;1536;51.098;6.414;2022-07-06T11:16:24;21.80;92.30
3053;DHT22;1536;51.098;6.414;2022-07-06T11:19:03;21.80;92.40
3053;DHT22;1536;51.098;6.414;2022-07-06T11:21:44;21.80;92.60
3053;DHT22;1536;51.098;6.414;2022-07-06T11:24:13;21.80;92.60
3053;DHT22;1536;51.098;6.414;2022-07-06T11:26:44;21.80;92.50
3053;DHT22;1536;51.098;6.414;2022-07-06T11:29:12;21.70;92.40
3053;DHT22;1536;51.098;6.414;2022-07-06T11:31:39;21.70;92.60
3053;DHT22;1536;51.098;6.414;2022-07-06T11:34:08;21.70;92.70
3053;DHT22;1536;51.098;6.414;2022-07-06T11:36:37;21.70;92.70
3053;DHT22;1536;51.098;6.414;2022-07-06T11:39:04;21.80;92.80
3053;DHT22;1536;51.098;6.414;2022-07-06T11:41:32;21.90;92.80
3053;DHT22;1536;51.098;6.414;2022-07-06T11:44:00;22.00;92.50
3053;DHT22;1536;51.098;6.414;2022-07-06T11:46:28;22.00;92.30
3053;DHT22;1536;51.098;6.414;2022-07-06T11:48:56;22.10;92.20
3053;DHT22;1536;51.098;6.414;2022-07-06T11:51:24;22.10;91.80
3053;DHT22;1536;51.098;6.414;2022-07-06T11:53:53;22.10;91.70
3053;DHT22;1536;51.098;6.414;2022-07-06T11:56:20;22.00;91.60
3053;DHT22;1536;51.098;6.414;2022-07-06T11:58:51;22.00;91.10
3053;DHT22;1536;51.098;6.414;2022-07-06T12:01:20;22.00;91.40
3053;DHT22;1536;51.098;6.414;2022-07-06T12:03:47;22.00;91.30
3053;DHT22;1536;51.098;6.414;2022-07-06T12:06:17;22.00;91.40
3053;DHT22;1536;51.098;6.414;2022-07-06T12:08:46;22.00;91.40
3053;DHT22;1536;51.098;6.414;2022-07-06T12:11:19;22.00;91.20
3053;DHT22;1536;51.098;6.414;2022-07-06T12:13:47;22.10;91.40
3053;DHT22;1536;51.098;6.414;2022-07-06T12:16:14;22.10;91.50
3053;DHT22;1536;51.098;6.414;2022-07-06T12:18:44;22.10;91.20
3053;DHT22;1536;51.098;6.414;2022-07-06T12:21:14;22.10;91.00
3053;DHT22;1536;51.098;6.414;2022-07-06T12:23:44;22.10;90.90
3053;DHT22;1536;51.098;6.414;2022-07-06T12:26:12;22.20;90.90
3053;DHT22;1536;51.098;6.414;2022-07-06T12:28:39;22.20;91.00
3053;DHT22;1536;51.098;6.414;2022-07-06T12:31:07;22.30;91.00
3053;DHT22;1536;51.098;6.414;2022-07-06T12:33:34;22.30;90.70
3053;DHT22;1536;51.098;6.414;2022-07-06T12:36:13;22.30;90.60
3053;DHT22;1536;51.098;6.414;2022-07-06T12:38:45;22.40;90.70
3053;DHT22;1536;51.098;6.414;2022-07-06T12:41:25;22.40;90.50
3053;DHT22;1536;51.098;6.414;2022-07-06T12:44:00;22.40;90.20
3053;DHT22;1536;51.098;6.414;2022-07-06T12:46:29;22.40;90.50
3053;DHT22;1536;51.098;6.414;2022-07-06T12:49:00;22.50;90.90
3053;DHT22;1536;51.098;6.414;2022-07-06T12:51:29;22.60;90.90
3053;DHT22;1536;51.098;6.414;2022-07-06T12:54:12;22.70;90.50
3053;DHT22;1536;51.098;6.414;2022-07-06T12:59:43;22.80;89.50
3053;DHT22;1536;51.098;6.414;2022-07-06T13:02:18;22.90;90.10
3053;DHT22;1536;51.098;6.414;2022-07-06T13:04:54;22.80;89.80
3053;DHT22;1536;51.098;6.414;2022-07-06T13:07:23;22.80;89.60
3053;DHT22;1536;51.098;6.414;2022-07-06T13:09:51;22.80;90.00
3053;DHT22;1536;51.098;6.414;2022-07-06T13:12:19;22.80;90.00
3053;DHT22;1536;51.098;6.414;2022-07-06T13:14:46;22.90;89.90
3053;DHT22;1536;51.098;6.414;2022-07-06T13:17:12;23.10;90.00
3053;DHT22;1536;51.098;6.414;2022-07-06T13:19:39;23.20;89.40
3053;DHT22;1536;51.098;6.414;2022-07-06T13:22:06;23.30;89.00
3053;DHT22;1536;51.098;6.414;2022-07-06T13:24:34;23.40;88.60
3053;DHT22;1536;51.098;6.414;2022-07-06T13:27:01;23.50;88.80
3053;DHT22;1536;51.098;6.414;2022-07-06T13:29:28;23.70;88.30
3053;DHT22;1536;51.098;6.414;2022-07-06T13:31:55;23.70;87.60
3053;DHT22;1536;51.098;6.414;2022-07-06T13:34:22;23.80;87.70
3053;DHT22;1536;51.098;6.414;2022-07-06T13:36:49;23.90;87.50
3053;DHT22;1536;51.098;6.414;2022-07-06T13:39:16;24.00;87.40
3053;DHT22;1536;51.098;6.414;2022-07-06T13:41:44;24.00;86.60
3053;DHT22;1536;51.098;6.414;2022-07-06T13:44:12;23.90;85.90
3053;DHT22;1536;51.098;6.414;2022-07-06T13:46:39;24.00;86.40
3053;DHT22;1536;51.098;6.414;2022-07-06T13:49:06;24.00;86.30
3053;DHT22;1536;51.098;6.414;2022-07-06T13:51:32;24.00;86.80
3053;DHT22;1536;51.098;6.414;2022-07-06T13:53:59;24.00;87.30
3053;DHT22;1536;51.098;6.414;2022-07-06T13:56:27;24.00;86.40
3053;DHT22;1536;51.098;6.414;2022-07-06T13:58:55;24.00;86.70
3053;DHT22;1536;51.098;6.414;2022-07-06T14:01:22;24.00;85.90
3053;DHT22;1536;51.098;6.414;2022-07-06T14:03:50;24.10;85.40
3053;DHT22;1536;51.098;6.414;2022-07-06T14:06:17;24.10;86.00
3053;DHT22;1536;51.098;6.414;2022-07-06T14:08:45;24.10;86.50
3053;DHT22;1536;51.098;6.414;2022-07-06T14:11:12;24.20;86.40
3053;DHT22;1536;51.098;6.414;2022-07-06T14:13:39;24.30;85.50
3053;DHT22;1536;51.098;6.414;2022-07-06T14:16:08;24.40;85.50
3053;DHT22;1536;51.098;6.414;2022-07-06T14:18:35;24.50;85.10
3053;DHT22;1536;51.098;6.414;2022-07-06T14:21:02;24.60;84.90
3053;DHT22;1536;51.098;6.414;2022-07-06T14:23:30;24.70;82.90
3053;DHT22;1536;51.098;6.414;2022-07-06T14:25:57;24.70;82.70
3053;DHT22;1536;51.098;6.414;2022-07-06T14:28:24;24.80;83.00
3053;DHT22;1536;51.098;6.414;2022-07-06T14:30:51;24.90;82.70
3053;DHT22;1536;51.098;6.414;2022-07-06T14:33:19;25.00;82.50
3053;DHT22;1536;51.098;6.414;2022-07-06T14:35:47;25.00;82.40
3053;DHT22;1536;51.098;6.414;2022-07-06T14:38:15;25.00;81.80
3053;DHT22;1536;51.098;6.414;2022-07-06T14:40:41;25.10;81.80
3053;DHT22;1536;51.098;6.414;2022-07-06T14:43:09;25.10;82.20
3053;DHT22;1536;51.098;6.414;2022-07-06T14:45:36;25.10;82.00
3053;DHT22;1536;51.098;6.414;2022-07-06T14:48:03;25.10;81.10
3053;DHT22;1536;51.098;6.414;2022-07-06T14:50:32;25.10;78.90
3053;DHT22;1536;51.098;6.414;2022-07-06T14:53:00;25.00;80.30
3053;DHT22;1536;51.098;6.414;2022-07-06T14:55:27;25.00;81.30
3053;DHT22;1536;51.098;6.414;2022-07-06T14:57:54;25.00;81.10
3053;DHT22;1536;51.098;6.414;2022-07-06T15:00:22;25.10;81.30
3053;DHT22;1536;51.098;6.414;2022-07-06T15:02:49;25.20;81.10
3053;DHT22;1536;51.098;6.414;2022-07-06T15:05:16;25.30;81.50
3053;DHT22;1536;51.098;6.414;2022-07-06T15:07:44;25.30;80.70
3053;DHT22;1536;51.098;6.414;2022-07-06T15:10:11;25.40;80.50
3053;DHT22;1536;51.098;6.414;2022-07-06T15:12:38;25.40;79.30
3053;DHT22;1536;51.098;6.414;2022-07-06T15:15:05;25.40;79.20
3053;DHT22;1536;51.098;6.414;2022-07-06T15:17:32;25.50;79.00
3053;DHT22;1536;51.098;6.414;2022-07-06T15:19:59;25.50;78.90
3053;DHT22;1536;51.098;6.414;2022-07-06T15:22:27;25.50;79.10
3053;DHT22;1536;51.098;6.414;2022-07-06T15:24:55;25.40;79.30
3053;DHT22;1536;51.098;6.414;2022-07-06T15:27:22;25.30;79.20
3053;DHT22;1536;51.098;6.414;2022-07-06T15:29:49;25.30;79.00
3053;DHT22;1536;51.098;6.414;2022-07-06T15:32:15;25.20;76.90
3053;DHT22;1536;51.098;6.414;2022-07-06T15:34:42;25.20;77.30
3053;DHT22;1536;51.098;6.414;2022-07-06T15:37:09;25.20;77.90
3053;DHT22;1536;51.098;6.414;2022-07-06T15:39:36;25.30;78.70
3053;DHT22;1536;51.098;6.414;2022-07-06T15:42:05;25.40;79.90
3053;DHT22;1536;51.098;6.414;2022-07-06T15:44:31;25.50;79.00
3053;DHT22;1536;51.098;6.414;2022-07-06T15:47:04;25.50;78.90
3053;DHT22;1536;51.098;6.414;2022-07-06T15:49:32;25.50;78.60
3053;DHT22;1536;51.098;6.414;2022-07-06T15:51:59;25.50;78.70
3053;DHT22;1536;51.098;6.414;2022-07-06T15:54:26;25.50;78.40
3053;DHT22;1536;51.098;6.414;2022-07-06T15:56:53;25.50;78.40
3053;DHT22;1536;51.098;6.414;2022-07-06T15:59:21;25.50;78.20
3053;DHT22;1536;51.098;6.414;2022-07-06T16:01:49;25.40;78.20
3053;DHT22;1536;51.098;6.414;2022-07-06T16:04:16;25.40;78.10
3053;DHT22;1536;51.098;6.414;2022-07-06T16:06:43;25.30;78.50
3053;DHT22;1536;51.098;6.414;2022-07-06T16:09:10;25.20;79.00
3053;DHT22;1536;51.098;6.414;2022-07-06T16:11:37;25.10;79.20
3053;DHT22;1536;51.098;6.414;2022-07-06T16:14:03;25.00;79.30
3053;DHT22;1536;51.098;6.414;2022-07-06T16:16:31;24.80;79.30